Time;durP1;ratioP1;P1;durP2;ratioP2;P2;SDS_P1;SDS_P2;PMS_P1;PMS_P2;Temp;Humidity;BMP_temperature;BMP_pressure;BME280_temperature;BME280_humidity;BME280_pressure;Samples;Min_cycle;Max_cycle;Signal;HPM_P1;HPM_P2
2024/01/26 00:01:31;;;;;;;85.63;31.35;;;;;;;;;;4983706;28;20046;-68
2024/01/26 00:03:57;;;;;;;78.80;29.15;;;9.50;99.90;;;;;;4975155;28;20057;-69
2024/01/26 00:06:24;;;;;;;70.38;27.67;;;;;;;;;;4983428;28;20060;-68
2024/01/26 00:08:50;;;;;;;84.07;30.00;;;9.40;99.90;;;;;;4981147;28;20047;-69
2024/01/26 00:11:16;;;;;;;75.57;30.42;;;9.50;99.90;;;;;;4981689;28;20053;-69
2024/01/26 00:13:42;;;;;;;66.28;27.35;;;9.60;99.90;;;;;;4984169;28;20077;-69
2024/01/26 00:16:08;;;;;;;78.05;28.35;;;;;;;;;;4984660;28;20392;-69
2024/01/26 00:18:35;;;;;;;81.65;30.45;;;9.60;99.90;;;;;;4981806;28;20751;-69
2024/01/26 00:21:01;;;;;;;74.68;32.47;;;;;;;;;;4984577;28;20050;-69
2024/01/26 00:23:27;;;;;;;76.57;30.88;;;;;;;;;;4982684;28;20046;-69
2024/01/26 00:25:52;;;;;;;67.15;28.80;;;9.70;99.90;;;;;;4979711;28;20057;-69
2024/01/26 00:28:18;;;;;;;75.60;27.80;;;;;;;;;;4982498;28;20088;-69
2024/01/26 00:30:44;;;;;;;69.63;27.65;;;;;;;;;;4980613;28;20575;-69
2024/01/26 00:33:10;;;;;;;68.25;27.75;;;9.80;99.90;;;;;;4978622;28;20085;-69
2024/01/26 00:35:36;;;;;;;56.30;25.13;;;;;;;;;;4980576;28;20050;-69
2024/01/26 00:38:02;;;;;;;60.75;25.40;;;;;;;;;;4982915;28;20124;-69
2024/01/26 00:40:28;;;;;;;58.13;24.48;;;9.70;99.90;;;;;;4981844;28;20077;-69
2024/01/26 00:42:54;;;;;;;51.22;23.08;;;;;;;;;;4980839;28;20161;-69
2024/01/26 00:45:20;;;;;;;46.28;22.67;;;;;;;;;;4979170;28;20200;-68
2024/01/26 00:47:45;;;;;;;50.90;21.73;;;9.50;99.90;;;;;;4981849;28;20049;-69
2024/01/26 00:50:11;;;;;;;46.13;22.23;;;;;;;;;;4980654;28;20042;-68
2024/01/26 00:52:37;;;;;;;46.10;22.70;;;;;;;;;;4999574;28;20799;-69
2024/01/26 00:55:03;;;;;;;48.00;23.35;;;9.70;99.90;;;;;;4976582;28;20039;-70
2024/01/26 00:57:29;;;;;;;51.08;23.30;;;;;;;;;;4982662;28;20089;-68
2024/01/26 00:59:56;;;;;;;48.58;22.23;;;;;;;;;;4980542;28;20576;-69
2024/01/26 01:02:23;;;;;;;44.20;22.95;;;;;;;;;;4983991;28;20666;-69
2024/01/26 01:04:49;;;;;;;48.83;24.17;;;;;;;;;;4978182;28;20208;-69
2024/01/26 01:07:15;;;;;;;47.55;22.27;;;;;;;;;;4983972;28;20084;-69
2024/01/26 01:09:41;;;;;;;47.05;23.80;;;;;;;;;;4982366;28;20081;-69
2024/01/26 01:12:07;;;;;;;48.45;22.75;;;;;;;;;;4981956;28;20042;-69
2024/01/26 01:14:36;;;;;;;45.35;22.00;;;;;;;;;;4976812;28;20054;-68
2024/01/26 01:17:04;;;;;;;44.28;22.55;;;;;;;;;;4978715;28;20145;-70
2024/01/26 01:19:30;;;;;;;45.15;22.23;;;;;;;;;;4980491;28;20173;-70
2024/01/26 01:21:56;;;;;;;48.00;22.38;;;;;;;;;;4983166;28;20050;-69
2024/01/26 01:24:22;;;;;;;50.00;21.73;;;9.70;99.90;;;;;;4982192;28;20053;-69
2024/01/26 01:26:48;;;;;;;42.95;20.88;;;;;;;;;;4982176;28;20030;-69
2024/01/26 01:29:13;;;;;;;44.10;22.25;;;;;;;;;;4979722;28;20599;-69
2024/01/26 01:31:40;;;;;;;43.95;21.52;;;;;;;;;;4981062;28;20038;-70
2024/01/26 01:34:06;;;;;;;48.92;24.13;;;;;;;;;;4981848;28;20047;-68
2024/01/26 01:36:32;;;;;;;50.78;23.65;;;;;;;;;;4976425;28;20050;-69
2024/01/26 01:38:58;;;;;;;41.28;22.77;;;;;;;;;;4982284;28;20054;-69
2024/01/26 01:41:24;;;;;;;45.22;23.75;;;;;;;;;;4974570;28;20189;-69
2024/01/26 01:43:54;;;;;;;45.80;23.55;;;9.80;99.90;;;;;;4982612;28;20152;-69
2024/01/26 01:46:20;;;;;;;45.42;23.60;;;;;;;;;;4978821;28;20057;-69
2024/01/26 01:48:46;;;;;;;44.92;23.48;;;;;;;;;;4980785;28;20042;-69
2024/01/26 01:51:13;;;;;;;44.22;22.30;;;;;;;;;;4981167;28;20471;-69
2024/01/26 01:53:40;;;;;;;41.03;23.08;;;10.10;99.90;;;;;;4982245;28;20439;-69
2024/01/26 01:56:10;;;;;;;42.67;23.02;;;10.10;99.90;;;;;;4979141;28;20185;-69
2024/01/26 01:58:37;;;;;;;43.97;23.45;;;;;;;;;;4980953;28;20042;-68
2024/01/26 02:01:04;;;;;;;39.60;22.33;;;;;;;;;;4976652;28;20046;-69
2024/01/26 02:03:30;;;;;;;43.15;23.35;;;;;;;;;;4980346;28;20054;-69
2024/01/26 02:05:56;;;;;;;38.05;20.00;;;10.00;99.90;;;;;;4980246;28;20046;-69
2024/01/26 02:08:22;;;;;;;40.45;22.20;;;;;;;;;;4980051;28;20084;-69
2024/01/26 02:10:48;;;;;;;41.88;22.50;;;;;;;;;;4980305;28;20519;-68
2024/01/26 02:13:14;;;;;;;41.38;22.23;;;;;;;;;;4981787;28;20050;-69
2024/01/26 02:15:40;;;;;;;39.38;21.25;;;;;;;;;;4974226;28;20409;-69
2024/01/26 02:18:07;;;;;;;38.78;21.58;;;;;;;;;;4977273;28;20046;-68
2024/01/26 02:20:33;;;;;;;40.47;22.15;;;;;;;;;;4976736;28;20044;-69
2024/01/26 02:22:59;;;;;;;36.30;21.15;;;;;;;;;;4978399;28;20049;-69
2024/01/26 02:25:25;;;;;;;38.35;20.15;;;;;;;;;;4979981;28;20050;-69
2024/01/26 02:27:52;;;;;;;36.15;21.77;;;;;;;;;;4979497;28;20104;-69
2024/01/26 02:30:18;;;;;;;34.78;19.77;;;;;;;;;;4978759;28;20121;-69
2024/01/26 02:32:44;;;;;;;36.45;21.70;;;;;;;;;;4978060;28;20057;-69
2024/01/26 02:35:10;;;;;;;36.40;20.40;;;10.10;99.90;;;;;;4975281;28;20078;-69
2024/01/26 02:37:36;;;;;;;35.05;20.17;;;;;;;;;;4982276;28;20097;-69
2024/01/26 02:40:02;;;;;;;31.67;18.98;;;10.00;99.90;;;;;;4980592;28;20408;-69
2024/01/26 02:42:28;;;;;;;41.33;21.83;;;;;;;;;;4977003;28;20066;-68
2024/01/26 02:44:53;;;;;;;36.13;21.40;;;10.00;99.90;;;;;;4979730;28;20145;-69
2024/01/26 02:47:19;;;;;;;34.15;20.15;;;;;;;;;;4979105;28;20047;-69
2024/01/26 02:49:46;;;;;;;33.20;19.75;;;;;;;;;;4983383;28;20124;-69
2024/01/26 02:52:12;;;;;;;35.55;20.85;;;;;;;;;;4975422;28;20150;-69
2024/01/26 02:54:38;;;;;;;32.38;18.77;;;;;;;;;;4982966;28;20046;-68
2024/01/26 02:57:05;;;;;;;34.67;19.45;;;;;;;;;;4974094;28;20057;-69
2024/01/26 02:59:31;;;;;;;34.22;19.80;;;;;;;;;;4972695;28;20130;-69
2024/01/26 03:01:57;;;;;;;31.48;18.35;;;;;;;;;;4975070;28;20492;-68
2024/01/26 03:04:22;;;;;;;30.52;17.33;;;10.10;99.90;;;;;;4971106;28;20054;-69
2024/01/26 03:06:48;;;;;;;32.88;18.70;;;;;;;;;;4983791;28;20149;-68
2024/01/26 03:09:14;;;;;;;30.52;17.05;;;10.10;99.90;;;;;;4982256;28;20046;-69
2024/01/26 03:11:42;;;;;;;30.60;19.20;;;10.30;99.90;;;;;;4981682;28;20069;-69
2024/01/26 03:14:09;;;;;;;30.13;17.48;;;;;;;;;;4981551;28;20096;-68
2024/01/26 03:16:35;;;;;;;32.35;17.13;;;;;;;;;;4982445;28;20551;-69
2024/01/26 03:19:02;;;;;;;28.98;17.38;;;;;;;;;;4982721;28;20046;-69
2024/01/26 03:21:28;;;;;;;32.38;18.05;;;;;;;;;;4983318;28;20050;-69
2024/01/26 03:23:54;;;;;;;30.88;18.13;;;;;;;;;;4985115;28;20130;-69
2024/01/26 03:26:20;;;;;;;28.80;17.45;;;;;;;;;;4986484;28;20045;-69
2024/01/26 03:28:46;;;;;;;31.02;17.67;;;10.30;99.90;;;;;;4980572;28;20653;-69
2024/01/26 03:31:12;;;;;;;26.75;15.93;;;;;;;;;;4984452;28;20042;-69
2024/01/26 03:33:38;;;;;;;35.08;17.58;;;;;;;;;;4983485;28;20504;-69
2024/01/26 03:36:04;;;;;;;29.83;17.13;;;10.40;99.90;;;;;;4984819;28;20783;-68
2024/01/26 03:38:30;;;;;;;32.50;18.13;;;;;;;;;;4977967;28;20044;-69
2024/01/26 03:40:56;;;;;;;30.02;17.13;;;;;;;;;;4981635;28;20642;-69
2024/01/26 03:43:22;;;;;;;32.63;17.45;;;;;;;;;;4981001;28;20062;-69
2024/01/26 03:45:48;;;;;;;31.90;17.13;;;10.20;99.90;;;;;;4983271;28;20412;-69
2024/01/26 03:48:13;;;;;;;37.00;17.63;;;10.30;99.90;;;;;;4974525;28;20046;-69
2024/01/26 03:50:40;;;;;;;31.90;18.33;;;;;;;;;;4975390;28;20056;-69
2024/01/26 03:53:06;;;;;;;35.35;17.80;;;;;;;;;;4978278;28;20050;-69
2024/01/26 03:55:32;;;;;;;33.63;18.77;;;;;;;;;;4975512;28;20049;-69
2024/01/26 03:57:58;;;;;;;36.42;19.10;;;;;;;;;;4975792;28;20526;-69
2024/01/26 04:00:24;;;;;;;31.35;17.00;;;10.40;99.90;;;;;;4983556;28;20046;-69
2024/01/26 04:02:50;;;;;;;36.00;18.65;;;;;;;;;;4984287;28;20042;-69
2024/01/26 04:05:16;;;;;;;34.10;18.65;;;;;;;;;;4977796;28;20052;-69
2024/01/26 04:07:42;;;;;;;37.05;18.90;;;;;;;;;;4979950;28;20165;-69
2024/01/26 04:10:08;;;;;;;39.22;20.20;;;;;;;;;;4982862;28;20633;-68
2024/01/26 04:12:35;;;;;;;32.67;18.50;;;10.40;99.90;;;;;;4978693;28;20053;-69
2024/01/26 04:15:01;;;;;;;32.60;18.20;;;;;;;;;;4981326;28;20078;-69
2024/01/26 04:17:27;;;;;;;31.10;16.40;;;;;;;;;;4979381;28;20053;-69
2024/01/26 04:19:53;;;;;;;35.85;18.50;;;;;;;;;;4962802;28;20046;-69
2024/01/26 04:22:19;;;;;;;32.38;17.48;;;;;;;;;;4981363;28;20069;-69
2024/01/26 04:24:46;;;;;;;29.55;18.20;;;;;;;;;;4955222;28;20133;-68
2024/01/26 04:27:12;;;;;;;31.85;15.10;;;;;;;;;;4977555;28;20061;-70
2024/01/26 04:29:38;;;;;;;30.52;17.83;;;;;;;;;;4979414;28;20058;-69
2024/01/26 04:32:04;;;;;;;29.83;17.15;;;10.50;99.90;;;;;;4980032;28;20053;-69
2024/01/26 04:34:30;;;;;;;28.40;16.70;;;;;;;;;;4983232;28;20042;-68
2024/01/26 04:36:57;;;;;;;27.17;15.93;;;;;;;;;;4983363;28;20053;-69
2024/01/26 04:39:23;;;;;;;26.90;16.40;;;;;;;;;;4978037;28;20089;-69
2024/01/26 04:41:49;;;;;;;35.83;16.38;;;;;;;;;;4981935;28;20768;-69
2024/01/26 04:44:14;;;;;;;30.15;16.20;;;;;;;;;;4978853;28;20064;-69
2024/01/26 04:46:41;;;;;;;27.70;15.98;;;;;;;;;;4977609;28;20042;-69
2024/01/26 04:49:07;;;;;;;25.77;15.50;;;;;;;;;;4973797;28;20149;-69
2024/01/26 04:51:33;;;;;;;28.30;15.27;;;;;;;;;;4981644;28;20053;-69
2024/01/26 04:53:59;;;;;;;23.63;16.17;;;;;;;;;;4977076;28;20046;-70
2024/01/26 04:56:25;;;;;;;29.25;15.18;;;;;;;;;;4980632;28;20146;-69
2024/01/26 04:58:50;;;;;;;29.40;16.48;;;10.80;99.90;;;;;;4975208;28;20046;-69
2024/01/26 05:01:16;;;;;;;26.45;15.90;;;;;;;;;;4980579;28;20830;-69
2024/01/26 05:03:42;;;;;;;26.85;17.42;;;;;;;;;;4977400;28;20042;-69
2024/01/26 05:06:09;;;;;;;25.80;14.48;;;;;;;;;;4978253;28;20459;-69
2024/01/26 05:08:35;;;;;;;28.05;17.63;;;;;;;;;;4977810;28;20108;-69
2024/01/26 05:11:00;;;;;;;29.67;18.65;;;10.80;99.90;;;;;;4978966;28;20046;-69
2024/01/26 05:13:26;;;;;;;27.35;17.08;;;;;;;;;;4978159;28;20505;-68
2024/01/26 05:15:52;;;;;;;26.88;16.70;;;;;;;;;;4978928;28;20049;-69
2024/01/26 05:18:18;;;;;;;32.20;18.48;;;;;;;;;;4978155;28;20046;-69
2024/01/26 05:20:44;;;;;;;31.88;18.58;;;;;;;;;;4979042;28;20120;-68
2024/01/26 05:23:10;;;;;;;32.42;20.13;;;;;;;;;;4981236;28;20124;-69
2024/01/26 05:25:36;;;;;;;30.92;19.85;;;;;;;;;;4982667;28;20077;-69
2024/01/26 05:28:02;;;;;;;30.42;19.95;;;;;;;;;;4979218;28;20046;-68
2024/01/26 05:30:28;;;;;;;31.52;18.70;;;;;;;;;;4978176;28;20053;-69
2024/01/26 05:32:54;;;;;;;31.73;19.35;;;;;;;;;;4979989;28;20046;-69
2024/01/26 05:35:21;;;;;;;30.42;19.23;;;;;;;;;;4978678;28;20046;-69
2024/01/26 05:37:46;;;;;;;31.00;20.05;;;11.00;99.90;;;;;;4980700;28;20755;-69
2024/01/26 05:40:13;;;;;;;26.38;16.52;;;;;;;;;;4976948;28;20042;-69
2024/01/26 05:42:39;;;;;;;33.78;18.83;;;;;;;;;;4980090;28;20077;-69
2024/01/26 05:45:05;;;;;;;31.80;19.73;;;;;;;;;;4973028;28;20054;-69
2024/01/26 05:47:31;;;;;;;30.15;18.58;;;11.10;99.90;;;;;;4973754;28;20042;-69
2024/01/26 05:49:56;;;;;;;31.33;18.77;;;10.80;99.90;;;;;;4973960;28;20066;-69
2024/01/26 05:52:22;;;;;;;31.48;18.83;;;;;;;;;;4980586;28;20050;-68
2024/01/26 05:54:48;;;;;;;27.83;17.38;;;10.90;99.90;;;;;;4979301;28;20049;-69
2024/01/26 05:57:15;;;;;;;30.80;20.08;;;;;;;;;;4981321;28;20050;-69
2024/01/26 05:59:42;;;;;;;33.53;20.55;;;11.00;99.90;;;;;;4979575;28;20073;-68
2024/01/26 06:02:08;;;;;;;40.42;19.67;;;;;;;;;;4964919;28;20046;-69
2024/01/26 06:04:34;;;;;;;27.35;17.77;;;;;;;;;;4979302;28;20050;-69
2024/01/26 06:07:00;;;;;;;33.85;19.10;;;;;;;;;;4982860;28;20046;-69
2024/01/26 06:09:26;;;;;;;33.03;18.23;;;;;;;;;;4975591;28;20049;-69
2024/01/26 06:11:52;;;;;;;27.58;18.48;;;11.00;99.90;;;;;;4974529;28;20068;-69
2024/01/26 06:14:17;;;;;;;27.80;16.63;;;11.00;99.90;;;;;;4973704;28;20305;-69
2024/01/26 06:16:43;;;;;;;33.15;18.85;;;;;;;;;;4981557;28;20205;-69
2024/01/26 06:19:09;;;;;;;26.75;18.65;;;;;;;;;;4977561;28;20052;-69
2024/01/26 06:21:35;;;;;;;28.95;19.10;;;;;;;;;;4979790;28;20402;-69
2024/01/26 06:24:01;;;;;;;28.85;17.90;;;;;;;;;;4976048;28;20054;-69
2024/01/26 06:26:27;;;;;;;26.30;16.58;;;;;;;;;;4979707;28;20096;-69
2024/01/26 06:28:53;;;;;;;31.30;17.90;;;;;;;;;;4979223;28;20601;-69
2024/01/26 06:31:24;;;;;;;26.98;16.90;;;11.00;99.90;;;;;;4979079;28;20759;-68
2024/01/26 06:33:50;;;;;;;26.00;17.50;;;11.00;99.90;;;;;;4978831;28;20053;-69
2024/01/26 06:36:16;;;;;;;25.55;17.42;;;;;;;;;;4979288;28;20038;-69
2024/01/26 06:38:42;;;;;;;24.25;16.30;;;;;;;;;;4968217;28;20598;-69
2024/01/26 06:41:08;;;;;;;26.88;15.55;;;;;;;;;;4973450;28;20035;-69
2024/01/26 06:43:34;;;;;;;26.27;15.48;;;;;;;;;;4979529;28;20069;-68
2024/01/26 06:46:00;;;;;;;21.20;13.07;;;;;;;;;;4976484;28;20046;-69
2024/01/26 06:48:26;;;;;;;23.50;14.30;;;;;;;;;;4980211;28;20042;-69
2024/01/26 06:50:52;;;;;;;24.35;15.27;;;;;;;;;;4979071;28;20148;-69
2024/01/26 06:53:19;;;;;;;25.85;14.27;;;11.00;99.90;;;;;;4980920;28;20460;-69
2024/01/26 06:55:45;;;;;;;21.70;13.88;;;;;;;;;;4975353;28;20046;-68
2024/01/26 06:58:11;;;;;;;21.88;13.98;;;;;;;;;;4975292;28;20043;-69
2024/01/26 07:00:37;;;;;;;20.08;12.30;;;;;;;;;;4970076;28;20468;-69
2024/01/26 07:03:03;;;;;;;23.10;13.57;;;10.90;99.90;;;;;;4981136;28;20046;-69
2024/01/26 07:05:29;;;;;;;22.50;13.52;;;11.00;99.90;;;;;;4976094;28;20055;-69
2024/01/26 07:07:56;;;;;;;23.27;13.70;;;;;;;;;;4980109;28;20427;-68
2024/01/26 07:10:22;;;;;;;18.98;12.02;;;;;;;;;;4977830;28;20085;-70
2024/01/26 07:12:48;;;;;;;19.77;12.25;;;10.90;99.90;;;;;;4980087;28;20049;-69
2024/01/26 07:15:14;;;;;;;19.85;11.63;;;10.90;99.90;;;;;;4981488;28;20219;-69
2024/01/26 07:17:40;;;;;;;18.27;11.23;;;;;;;;;;4982599;28;20571;-69
2024/01/26 07:20:07;;;;;;;18.17;11.05;;;11.10;99.90;;;;;;4979851;28;20555;-68
2024/01/26 07:22:33;;;;;;;15.75;10.93;;;;;;;;;;4980183;28;20038;-69
2024/01/26 07:24:59;;;;;;;15.23;10.00;;;;;;;;;;4974347;28;20054;-69
2024/01/26 07:27:25;;;;;;;15.52;9.10;;;;;;;;;;4980387;28;20050;-69
2024/01/26 07:29:51;;;;;;;12.82;8.35;;;;;;;;;;4981457;28;20042;-69
2024/01/26 07:32:17;;;;;;;15.25;9.23;;;;;;;;;;4979557;28;20117;-69
2024/01/26 07:34:43;;;;;;;12.85;9.27;;;;;;;;;;4982133;28;20049;-70
2024/01/26 07:37:09;;;;;;;15.80;8.70;;;;;;;;;;4984167;28;20086;-70
2024/01/26 07:39:35;;;;;;;11.95;7.90;;;;;;;;;;4997011;28;20995;-70
2024/01/26 07:42:01;;;;;;;11.57;8.23;;;;;;;;;;4982215;28;20054;-71
2024/01/26 07:44:27;;;;;;;16.05;9.05;;;;;;;;;;4983293;28;20085;-70
2024/01/26 07:46:53;;;;;;;12.32;8.40;;;;;;;;;;4981955;28;20149;-71
2024/01/26 07:49:19;;;;;;;12.68;8.82;;;;;;;;;;4983985;28;20038;-71
2024/01/26 07:51:45;;;;;;;11.18;8.07;;;11.00;99.90;;;;;;4982837;28;20096;-70
2024/01/26 07:54:11;;;;;;;11.77;7.53;;;;;;;;;;4979495;28;20578;-71
2024/01/26 07:56:37;;;;;;;8.88;6.65;;;;;;;;;;4980342;28;20039;-71
2024/01/26 07:59:03;;;;;;;9.45;7.35;;;;;;;;;;4979503;28;20044;-74
2024/01/26 08:01:29;;;;;;;10.13;6.60;;;;;;;;;;4982345;28;20073;-73
2024/01/26 08:03:55;;;;;;;10.55;6.55;;;;;;;;;;4981897;28;20054;-74
2024/01/26 08:06:20;;;;;;;12.13;6.95;;;;;;;;;;4981750;28;20054;-73
2024/01/26 08:08:47;;;;;;;10.32;6.65;;;;;;;;;;4981391;28;20579;-73
2024/01/26 08:11:13;;;;;;;9.35;6.53;;;;;;;;;;4978378;28;20057;-73
2024/01/26 08:13:39;;;;;;;10.82;7.55;;;;;;;;;;4974001;28;20497;-73
2024/01/26 08:16:05;;;;;;;10.57;7.00;;;11.00;99.90;;;;;;4982809;28;20042;-73
2024/01/26 08:18:31;;;;;;;12.95;9.32;;;;;;;;;;4981653;28;20050;-72
2024/01/26 08:20:57;;;;;;;13.15;9.50;;;;;;;;;;4983787;28;20050;-73
2024/01/26 08:23:23;;;;;;;13.68;9.52;;;;;;;;;;4982070;28;20412;-73
2024/01/26 08:25:49;;;;;;;12.27;8.50;;;;;;;;;;4982323;28;20491;-72
2024/01/26 08:28:15;;;;;;;14.02;9.75;;;11.20;99.90;;;;;;4985329;28;20069;-73
2024/01/26 08:30:42;;;;;;;15.73;10.45;;;;;;;;;;4983849;28;20046;-73
2024/01/26 08:33:08;;;;;;;15.88;9.90;;;;;;;;;;4982097;28;20068;-72
2024/01/26 08:35:33;;;;;;;15.38;10.80;;;11.30;99.90;;;;;;4980628;28;20046;-73
2024/01/26 08:37:59;;;;;;;15.80;10.00;;;;;;;;;;4984043;28;20416;-73
2024/01/26 08:40:26;;;;;;;15.52;9.75;;;;;;;;;;4976622;28;20046;-72
2024/01/26 08:42:52;;;;;;;14.32;8.45;;;;;;;;;;4973951;28;20803;-73
2024/01/26 08:45:18;;;;;;;12.82;7.90;;;;;;;;;;4982159;28;20516;-72
2024/01/26 08:47:44;;;;;;;14.32;8.88;;;;;;;;;;4985074;28;20049;-74
2024/01/26 08:50:11;;;;;;;11.73;7.32;;;;;;;;;;4981885;28;20434;-73
2024/01/26 08:52:37;;;;;;;13.35;7.10;;;;;;;;;;4980859;28;20152;-74
2024/01/26 08:55:03;;;;;;;12.43;6.55;;;;;;;;;;4981356;28;20046;-72
2024/01/26 08:57:29;;;;;;;12.93;7.55;;;11.20;99.90;;;;;;4984123;28;20760;-73
2024/01/26 08:59:55;;;;;;;15.45;6.57;;;;;;;;;;4983051;28;20062;-74
2024/01/26 09:02:21;;;;;;;12.38;6.72;;;11.20;99.90;;;;;;4976283;28;20043;-70
2024/01/26 09:04:47;;;;;;;10.45;6.50;;;;;;;;;;4980907;28;20052;-76
2024/01/26 09:07:17;;;;;;;18.70;7.43;;;;;;;;;;4978443;28;20069;-74
2024/01/26 09:09:43;;;;;;;10.48;5.28;;;;;;;;;;4980178;28;20049;-74
2024/01/26 09:12:09;;;;;;;10.02;3.80;;;;;;;;;;4977698;28;20049;-75
2024/01/26 09:14:35;;;;;;;7.82;2.67;;;;;;;;;;4996281;28;20043;-75
2024/01/26 09:17:01;;;;;;;4.32;1.83;;;;;;;;;;4983614;28;21161;-75
2024/01/26 09:19:27;;;;;;;3.97;1.50;;;;;;;;;;4976907;28;20224;-74
2024/01/26 09:21:53;;;;;;;8.25;1.83;;;;;;;;;;4982415;28;20043;-74
2024/01/26 09:24:19;;;;;;;5.43;1.50;;;;;;;;;;4977184;28;20045;-75
2024/01/26 09:26:45;;;;;;;8.20;2.42;;;;;;;;;;4971800;28;20435;-74
2024/01/26 09:29:11;;;;;;;8.48;1.38;;;;;;;;;;4983240;28;20071;-73
2024/01/26 09:31:37;;;;;;;4.82;1.42;;;10.40;99.90;;;;;;4979425;28;20222;-74
2024/01/26 09:34:03;;;;;;;2.97;1.10;;;;;;;;;;4980299;28;20061;-74
2024/01/26 09:36:29;;;;;;;5.10;1.83;;;;;;;;;;4980465;28;20042;-73
2024/01/26 09:38:55;;;;;;;12.43;2.17;;;10.30;99.90;;;;;;4979123;28;20050;-75
2024/01/26 09:41:21;;;;;;;6.22;1.67;;;;;;;;;;4982643;28;20093;-74
2024/01/26 09:43:47;;;;;;;5.53;1.33;;;;;;;;;;4982183;28;20081;-73
2024/01/26 09:46:14;;;;;;;7.50;1.85;;;;;;;;;;4982059;28;20076;-74
2024/01/26 09:48:40;;;;;;;8.13;2.20;;;;;;;;;;4981901;28;20468;-74
2024/01/26 09:51:06;;;;;;;7.90;1.63;;;;;;;;;;4979937;28;20077;-73
2024/01/26 09:53:34;;;;;;;7.50;1.65;;;10.00;99.90;;;;;;4977598;28;20264;-74
2024/01/26 09:56:00;;;;;;;8.05;1.92;;;;;;;;;;4978577;28;20053;-75
2024/01/26 09:58:27;;;;;;;8.68;1.70;;;;;;;;;;4977708;28;20053;-71
2024/01/26 10:00:55;;;;;;;8.80;2.10;;;;;;;;;;4979822;28;20117;-75
2024/01/26 10:04:02;;;;;;;9.07;2.15;;;;;;;;;;4974484;28;20054;-74
2024/01/26 10:06:34;;;;;;;8.10;2.25;;;;;;;;;;4960976;28;20069;-75
2024/01/26 10:12:05;;;;;;;13.13;2.08;;;;;;;;;;4978423;28;20054;-73
2024/01/26 10:15:07;;;;;;;13.77;2.63;;;;;;;;;;4982484;28;20056;-75
2024/01/26 10:17:53;;;;;;;14.95;2.58;;;10.00;99.90;;;;;;4966390;28;20054;-70
2024/01/26 10:20:20;;;;;;;16.90;2.92;;;;;;;;;;4966361;28;20208;-71
2024/01/26 10:22:46;;;;;;;13.38;3.28;;;;;;;;;;4981423;28;20038;-74
2024/01/26 10:25:13;;;;;;;10.02;2.42;;;;;;;;;;4980029;28;20128;-73
2024/01/26 10:27:39;;;;;;;15.00;2.90;;;;;;;;;;4980610;28;20125;-73
2024/01/26 10:30:06;;;;;;;18.27;2.95;;;10.10;99.90;;;;;;4987220;28;20349;-75
2024/01/26 10:32:32;;;;;;;11.93;2.45;;;;;;;;;;4970049;28;20047;-75
2024/01/26 10:35:02;;;;;;;9.57;2.20;;;9.80;99.90;;;;;;4966624;28;20038;-79
2024/01/26 10:37:32;;;;;;;18.58;3.58;;;;;;;;;;4976025;28;20042;-73
2024/01/26 10:39:59;;;;;;;12.00;3.05;;;9.70;99.90;;;;;;4996800;28;20057;-72
2024/01/26 10:42:29;;;;;;;13.85;2.72;;;9.80;99.90;;;;;;4975481;28;20134;-74
2024/01/26 10:44:55;;;;;;;13.05;3.33;;;;;;;;;;4965038;28;20042;-73
2024/01/26 10:47:22;;;;;;;10.77;3.25;;;;;;;;;;4977226;28;20053;-74
2024/01/26 10:49:49;;;;;;;17.92;2.72;;;9.80;99.90;;;;;;4979765;28;20794;-73
2024/01/26 10:52:19;;;;;;;16.15;3.15;;;;;;;;;;4977708;28;20073;-73
2024/01/26 10:54:51;;;;;;;14.57;3.40;;;10.10;99.90;;;;;;4978030;28;20145;-72
2024/01/26 10:57:19;;;;;;;12.75;2.90;;;;;;;;;;4980033;28;20074;-73
2024/01/26 10:59:45;;;;;;;9.77;2.60;;;;;;;;;;4966153;28;20408;-73
2024/01/26 11:02:15;;;;;;;11.93;2.83;;;;;;;;;;4976405;28;20046;-75
2024/01/26 11:04:44;;;;;;;17.38;3.33;;;;;;;;;;4977098;28;20034;-76
2024/01/26 11:07:10;;;;;;;13.00;2.85;;;;;;;;;;4980187;28;20096;-73
2024/01/26 11:09:41;;;;;;;19.33;3.10;;;9.90;99.90;;;;;;4984277;28;20042;-74
2024/01/26 11:12:21;;;;;;;15.55;3.05;;;;;;;;;;4987772;28;20404;-73
2024/01/26 11:14:47;;;;;;;17.75;3.40;;;9.70;99.90;;;;;;4980597;28;20086;-74
2024/01/26 11:17:14;;;;;;;19.88;4.25;;;;;;;;;;4977451;28;20042;-74
2024/01/26 11:19:48;;;;;;;20.13;2.95;;;;;;;;;;4999077;28;20046;-73
2024/01/26 11:22:15;;;;;;;14.45;3.72;;;;;;;;;;4973673;28;20130;-74
2024/01/26 11:24:43;;;;;;;22.98;3.50;;;9.60;99.90;;;;;;4973487;28;20042;-73
2024/01/26 11:27:10;;;;;;;13.38;3.70;;;;;;;;;;4992683;28;20042;-74
2024/01/26 11:29:37;;;;;;;20.73;3.47;;;9.60;99.90;;;;;;4982821;28;20053;-73
2024/01/26 11:32:15;;;;;;;17.80;2.97;;;;;;;;;;4980951;28;20042;-76
2024/01/26 11:34:41;;;;;;;19.35;4.03;;;;;;;;;;4978968;28;20098;-75
2024/01/26 11:37:12;;;;;;;13.75;2.97;;;;;;;;;;4982376;28;20042;-75
2024/01/26 11:39:38;;;;;;;22.35;4.20;;;;;;;;;;4998112;28;20049;-76
2024/01/26 11:42:11;;;;;;;15.00;2.88;;;;;;;;;;4982124;28;20085;-76
2024/01/26 11:44:40;;;;;;;18.15;3.90;;;9.50;99.90;;;;;;4972326;28;20054;-76
2024/01/26 11:47:10;;;;;;;25.30;3.70;;;;;;;;;;4979390;28;20073;-76
2024/01/26 11:49:36;;;;;;;18.85;3.20;;;;;;;;;;4984356;28;20038;-76
2024/01/26 11:52:03;;;;;;;19.17;3.60;;;;;;;;;;4978040;28;20046;-75
2024/01/26 11:54:33;;;;;;;21.65;3.60;;;9.50;99.90;;;;;;4980539;28;20057;-75
2024/01/26 11:56:59;;;;;;;19.13;3.65;;;;;;;;;;4979941;28;20049;-75
2024/01/26 11:59:28;;;;;;;22.75;4.25;;;;;;;;;;4976731;28;20049;-76
2024/01/26 12:01:54;;;;;;;13.77;3.28;;;;;;;;;;4981543;28;20080;-76
2024/01/26 12:04:20;;;;;;;24.52;4.50;;;;;;;;;;4982407;28;20408;-76
2024/01/26 12:06:46;;;;;;;13.73;3.97;;;;;;;;;;4974546;28;20058;-76
2024/01/26 12:09:12;;;;;;;20.38;3.55;;;;;;;;;;4982603;28;20742;-75
2024/01/26 12:11:38;;;;;;;18.13;3.70;;;9.20;99.90;;;;;;4981353;28;20400;-75
2024/01/26 12:14:04;;;;;;;17.88;3.38;;;;;;;;;;4983275;28;20047;-76
2024/01/26 12:16:31;;;;;;;13.85;3.00;;;;;;;;;;4981161;28;20046;-75
2024/01/26 12:18:57;;;;;;;16.98;3.17;;;;;;;;;;4984997;28;20052;-75
2024/01/26 12:21:23;;;;;;;11.50;2.92;;;;;;;;;;4997464;28;20154;-75
2024/01/26 12:23:50;;;;;;;14.85;3.70;;;;;;;;;;4978609;28;20048;-75
2024/01/26 12:26:16;;;;;;;17.02;3.13;;;;;;;;;;4982597;28;20647;-74
2024/01/26 12:28:42;;;;;;;16.85;3.25;;;;;;;;;;4980925;28;20132;-75
2024/01/26 12:31:09;;;;;;;20.65;3.38;;;;;;;;;;4982897;28;20054;-75
2024/01/26 12:33:36;;;;;;;16.02;3.25;;;;;;;;;;4982634;28;20042;-75
2024/01/26 12:36:02;;;;;;;17.52;2.80;;;;;;;;;;4984074;28;20057;-75
2024/01/26 12:38:28;;;;;;;15.98;4.15;;;;;;;;;;4981573;28;20042;-75
2024/01/26 12:40:55;;;;;;;16.50;3.10;;;9.20;99.90;;;;;;4982597;28;20100;-75
2024/01/26 12:43:21;;;;;;;16.75;3.95;;;;;;;;;;4982264;28;20810;-75
2024/01/26 12:45:47;;;;;;;15.63;2.72;;;;;;;;;;4980618;28;20115;-75
2024/01/26 12:48:13;;;;;;;13.05;2.40;;;;;;;;;;4980937;28;20170;-76
2024/01/26 12:50:39;;;;;;;11.77;2.33;;;;;;;;;;4982914;28;20042;-74
2024/01/26 12:53:05;;;;;;;10.75;2.53;;;;;;;;;;4983458;28;20065;-74
2024/01/26 12:55:31;;;;;;;10.13;2.50;;;;;;;;;;4982065;28;20097;-76
2024/01/26 12:57:57;;;;;;;13.68;2.78;;;;;;;;;;4974577;28;20539;-75
2024/01/26 13:00:23;;;;;;;12.82;2.60;;;;;;;;;;4985831;28;20038;-77
2024/01/26 13:02:49;;;;;;;28.83;3.20;;;;;;;;;;4981718;28;20413;-76
2024/01/26 13:05:15;;;;;;;18.80;4.05;;;;;;;;;;4963767;28;20046;-76
2024/01/26 13:07:42;;;;;;;13.10;2.35;;;;;;;;;;4979608;28;20086;-77
2024/01/26 13:10:09;;;;;;;8.38;1.65;;;;;;;;;;4978925;28;20134;-75
2024/01/26 13:12:35;;;;;;;13.73;2.67;;;;;;;;;;4982862;28;20544;-74
2024/01/26 13:15:01;;;;;;;9.63;2.58;;;;;;;;;;4976083;28;20150;-76
2024/01/26 13:17:27;;;;;;;7.88;1.85;;;;;;;;;;4977277;28;20145;-76
2024/01/26 13:19:53;;;;;;;7.78;1.83;;;;;;;;;;4979848;28;20116;-76
2024/01/26 13:22:19;;;;;;;10.27;2.63;;;;;;;;;;4981584;28;20594;-77
2024/01/26 13:24:45;;;;;;;17.10;2.22;;;;;;;;;;4981097;28;20046;-75
2024/01/26 13:27:11;;;;;;;7.35;1.70;;;;;;;;;;4979212;28;20112;-75
2024/01/26 13:29:38;;;;;;;8.20;2.10;;;;;;;;;;4978192;28;20042;-75
2024/01/26 13:32:05;;;;;;;8.00;2.40;;;;;;;;;;4973080;28;20643;-75
2024/01/26 13:34:31;;;;;;;3.85;1.40;;;;;;;;;;4986687;28;20053;-75
2024/01/26 13:36:58;;;;;;;7.85;1.63;;;;;;;;;;4982406;28;20046;-75
2024/01/26 13:39:24;;;;;;;5.90;1.35;;;;;;;;;;4981493;28;20046;-75
2024/01/26 13:41:50;;;;;;;5.88;1.65;;;;;;;;;;4981883;28;20161;-75
2024/01/26 13:44:16;;;;;;;2.35;1.33;;;;;;;;;;4977538;28;20056;-74
2024/01/26 13:46:44;;;;;;;6.70;1.63;;;;;;;;;;4978849;28;20060;-74
2024/01/26 13:49:10;;;;;;;12.88;2.88;;;;;;;;;;4973437;28;20539;-74
2024/01/26 13:51:36;;;;;;;11.05;2.05;;;8.50;99.90;;;;;;4980010;28;20077;-75
2024/01/26 13:54:02;;;;;;;7.13;2.00;;;;;;;;;;4976718;28;20459;-75
2024/01/26 13:56:28;;;;;;;8.40;1.80;;;8.70;99.90;;;;;;4981588;28;20042;-75
2024/01/26 13:58:54;;;;;;;10.38;1.92;;;;;;;;;;4979391;28;20239;-74